• Join FlightAware (Why Join?)
  • Login
  • US Flag 
Rudolph Flight #1: Arrived! 
11:37PM EST


 

Airport Tracker/Info


-or-


 

Live Flight TrackerFlight Track Log ✈ EJM77 ✈ 16-Aug-2013 ✈ KHOU - KMSP

Flight Track Log - Related Links

Times and Time Zones

All times are in EDT time to prevent confusion due to time zone crossing. See the EJM77 flight status page for this flight to view local times or setup timezone preferences in your user account.

Time Position Orientation Groundspeed Altitude Reporting Facility
EDT Latitude Longitude Course Direction KTS MPH feet Rate Location/Type
01:29PM 29.6297 -95.2969 195° South 189 217 700  Level Houston Center
01:30PM 29.6114 -95.3028 195° South 229 264 1,600 2,340 Climbing Houston Center
01:31PM 29.6131 -95.2508 88° East 240 276 3,800 2,220 Climbing Houston Center
01:32PM 29.6928 -95.2653 351° North 267 307 6,300 2,700 Climbing Houston Center
01:33PM 29.7833 -95.2708 357° North 271 312 10,100 2,880 Climbing Houston Center
01:34PM 29.8578 -95.2858 350° North 281 323 12,300 1,860 Climbing Houston Center
01:35PM 29.9325 -95.3297 333° Northwest 299 344 14,000 1,680 Climbing Houston Center
01:36PM 30.0142 -95.3733 335° Northwest 318 366 15,800 1,740 Climbing Houston Center
01:37PM 30.1000 -95.4192 335° Northwest 336 387 17,600 1,620 Climbing Houston Center
01:38PM 30.1872 -95.4664 335° Northwest 344 396 19,200 1,620 Climbing Houston Center
01:39PM 30.2750 -95.5139 335° Northwest 346 398 21,000 1,860 Climbing Houston Center
01:40PM 30.3800 -95.5697 335° Northwest 346 398 23,100 1,860 Climbing Houston Center
01:41PM 30.4653 -95.6142 336° Northwest 337 388 24,900 1,500 Climbing Houston Center
01:42PM 30.5494 -95.6603 335° Northwest 336 387 26,300 1,260 Climbing Houston Center
01:43PM 30.6403 -95.7064 336° Northwest 348 400 27,600 1,200 Climbing Houston Center
01:44PM 30.7264 -95.7553 334° Northwest 346 398 28,800 1,260 Climbing Houston Center
01:45PM 30.8339 -95.8128 335° Northwest 350 403 30,300 1,260 Climbing Houston Center
01:46PM 30.9264 -95.8625 335° Northwest 359 413 31,500 1,140 Climbing Houston Center
01:48PM 31.0192 -95.9111 336° Northwest 362 417 32,700 1,080 Climbing Houston Center
01:49PM 31.1122 -95.9603 336° Northwest 364 419 33,800 960 Climbing Houston Center
01:50PM 31.2114 -95.9886 346° North 369 425 34,800 960 Climbing Houston Center
01:51PM 31.3161 -95.9867 North 374 430 35,800 780 Climbing Houston Center
01:52PM 31.4194 -95.9831 North 372 428 36,500 600 Climbing Houston Center
01:53PM 31.5475 -95.9792 North 380 437 37,100 480 Climbing Houston Center
01:54PM 31.6561 -95.9758 North 370 426 37,600 480 Climbing Fort Worth Center
01:55PM 31.7689 -95.9742 North 386 444 38,100 420 Climbing Fort Worth Center
01:56PM 31.8731 -95.9675 North 381 438 38,500 420 Climbing Fort Worth Center
01:57PM 31.9797 -95.9683 360° North 381 438 39,000 240 Climbing Fort Worth Center
01:58PM 32.0881 -95.9642 North 376 433 39,000  Level Fort Worth Center
01:59PM 32.1986 -95.9625 North 382 440 39,000  Level Fort Worth Center
02:00PM 32.3094 -95.9583 North 387 445 39,000  Level Fort Worth Center
02:01PM 32.4219 -95.9539 North 392 451 39,000  Level Fort Worth Center
02:02PM 32.5369 -95.9522 North 398 458 39,000  Level Fort Worth Center
02:03PM 32.6517 -95.9503 North 404 465 39,000  Level Fort Worth Center
02:04PM 32.7644 -95.9483 North 404 465 39,000  Level Fort Worth Center
02:05PM 32.8792 -95.9442 North 404 465 39,000  Level Fort Worth Center
02:06PM 32.9939 -95.9397 North 404 465 39,000  Level Fort Worth Center
02:07PM 33.1108 -95.9353 North 404 465 39,000  Level Fort Worth Center
02:08PM 33.2256 -95.9333 North 404 465 39,000  Level Fort Worth Center
02:09PM 33.3422 -95.9289 North 404 465 39,000  Level Fort Worth Center
02:10PM 33.4572 -95.9269 North 404 465 39,000  Level Fort Worth Center
02:11PM 33.5781 -95.9225 North 416 479 39,000  Level Fort Worth Center
02:12PM 33.6928 -95.9181 North 416 479 39,000  Level Fort Worth Center
02:13PM 33.8136 -95.8986 North 421 484 39,000  Level Fort Worth Center
02:14PM 33.9300 -95.8614 15° North 426 490 39,000  Level Fort Worth Center
02:15PM 34.0486 -95.8267 14° North 431 496 39,000  Level Fort Worth Center
02:16PM 34.1631 -95.7944 13° North 426 490 39,000  Level Fort Worth Center
02:17PM 34.2814 -95.7572 15° North 426 490 39,000  Level Fort Worth Center
02:18PM 34.3978 -95.7247 13° North 431 496 39,000  Level Fort Worth Center
02:19PM 34.5183 -95.6869 14° North 431 496 39,000  Level Fort Worth Center
02:20PM 34.6367 -95.6494 15° North 431 496 39,000  Level Fort Worth Center
02:21PM 34.7572 -95.6139 14° North 431 496 39,000  Level Fort Worth Center
02:23PM 35.0256 -95.5300 14° North 441 507 39,000  Level Kansas City Center
02:24PM 35.1433 -95.4933 14° North 437 503 39,000  Level Kansas City Center
02:25PM 35.2606 -95.4567 14° North 436 502 39,000  Level Kansas City Center
02:26PM 35.3778 -95.4203 14° North 434 499 39,000  Level Kansas City Center
02:27PM 35.5169 -95.3767 14° North 431 496 39,000  Level Kansas City Center
02:28PM 35.6347 -95.3403 14° North 434 499 39,000  Level Kansas City Center
02:29PM 35.7514 -95.3039 14° North 433 498 39,000  Level Kansas City Center
02:30PM 35.8678 -95.2675 14° North 432 497 39,000  Level Kansas City Center
02:31PM 35.9844 -95.2311 14° North 433 498 39,000  Level Kansas City Center
02:32PM 36.1153 -95.1894 14° North 431 496 39,000  Level Kansas City Center
02:33PM 36.2300 -95.1525 15° North 428 493 39,000  Level Kansas City Center
02:34PM 36.3453 -95.1172 14° North 427 491 39,000  Level Kansas City Center
02:36PM 36.4625 -95.0667 19° North 428 493 39,000  Level Kansas City Center
02:37PM 36.5756 -95.0225 17° North 428 493 39,000  Level Kansas City Center
02:38PM 36.7092 -94.9686 18° North 425 489 39,000  Level Kansas City Center
02:39PM 36.8194 -94.9244 18° North 419 482 39,000  Level Kansas City Center
02:40PM 36.9292 -94.8789 18° North 416 479 39,000  Level Kansas City Center
02:41PM 37.0389 -94.8347 18° North 415 478 39,000  Level Kansas City Center
02:42PM 37.1500 -94.7900 18° North 418 481 39,000  Level Kansas City Center
02:43PM 37.2600 -94.7447 18° North 416 479 39,000  Level Kansas City Center
02:44PM 37.3939 -94.6911 18° North 419 482 39,000  Level Kansas City Center
02:45PM 37.5044 -94.6453 18° North 417 480 39,000  Level Kansas City Center
02:46PM 37.6164 -94.6000 18° North 421 484 39,000  Level Kansas City Center
02:47PM 37.7336 -94.5494 19° North 424 488 39,000  Level Kansas City Center
02:48PM 37.8406 -94.5058 18° North 423 487 39,000  Level Kansas City Center
02:49PM 37.9656 -94.4539 18° North 424 488 39,000  Level Kansas City Center
02:50PM 38.0733 -94.4094 18° North 424 488 39,000  Level Kansas City Center
02:51PM 38.1986 -94.3556 19° North 426 490 39,000  Level Kansas City Center
02:52PM 38.3069 -94.3097 18° North 426 490 39,000  Level Kansas City Center
02:53PM 38.4311 -94.2578 18° North 424 488 39,000  Level Kansas City Center
02:54PM 38.5381 -94.2128 18° North 423 487 39,000  Level Kansas City Center
02:55PM 38.6619 -94.1600 18° North 422 486 39,000  Level Kansas City Center
02:56PM 38.7669 -94.1164 18° North 417 480 39,000  Level Kansas City Center
02:57PM 38.8903 -94.0636 18° North 419 482 39,000  Level Kansas City Center
02:58PM 38.9964 -94.0175 19° North 420 483 39,000  Level Kansas City Center
02:59PM 39.1203 -93.9650 18° North 420 483 39,000  Level Kansas City Center
03:00PM 39.2261 -93.9183 19° North 420 483 39,000  Level Kansas City Center
03:01PM 39.3497 -93.8653 18° North 419 482 39,000  Level Kansas City Center
03:02PM 39.4561 -93.8189 19° North 421 484 39,000  Level Kansas City Center
03:03PM 39.5806 -93.7647 19° North 423 487 39,000  Level Kansas City Center
03:04PM 39.6819 -93.7200 19° North 423 487 39,000  Level Kansas City Center
03:05PM 39.7936 -93.6708 19° North 424 488 39,000  Level Kansas City Center
03:07PM 39.9044 -93.6217 19° North 425 489 39,000  Level Kansas City Center
03:08PM 40.0381 -93.5628 19° North 423 487 39,000  Level Kansas City Center
03:09PM 40.1486 -93.5144 18° North 422 486 39,000  Level Kansas City Center
03:10PM 40.2567 -93.4644 19° North 417 480 39,000  Level Kansas City Center
03:11PM 40.3669 -93.4161 18° North 417 480 39,000  Level Kansas City Center
03:12PM 40.4769 -93.3669 19° North 418 481 39,000  Level Kansas City Center
03:13PM 40.5867 -93.3169 19° North 419 482 39,000  Level Kansas City Center
03:14PM 40.6961 -93.2672 19° North 415 478 39,000  Level Chicago Center
03:15PM 40.8058 -93.2178 19° North 417 480 39,000  Level Chicago Center
03:16PM 40.9136 -93.1683 19° North 413 475 39,000  Level Chicago Center
03:17PM 41.0239 -93.1183 19° North 416 479 39,000  Level Chicago Center
03:18PM 41.1322 -93.0692 19° North 416 479 39,000  Level Chicago Center
03:19PM 41.2422 -93.0194 19° North 416 479 39,000  Level Minneapolis Center
03:20PM 41.3733 -92.9589 19° North 418 481 39,000  Level Minneapolis Center
03:21PM 41.4817 -92.9067 20° North 417 480 39,000  Level Minneapolis Center
03:22PM 41.5906 -92.8586 18° North 416 479 39,000  Level Minneapolis Center
03:23PM 41.6978 -92.8072 20° North 413 475 39,000  Level Minneapolis Center
03:24PM 41.8239 -92.7481 19° North 410 472 39,000  Level Minneapolis Center
03:25PM 41.9322 -92.6958 20° North 413 475 39,000 -120 Level Minneapolis Center
03:26PM 42.0392 -92.6467 19° North 412 474 38,800 -1,260 Descending Chicago Center
03:27PM 42.1425 -92.5972 20° North 401 461 36,400 -2,760 Descending Chicago Center
03:28PM 42.2683 -92.5375 19° North 402 463 33,200 -1,680 Descending Chicago Center
03:29PM 42.3747 -92.4850 20° North 405 466 33,000 -240 Descending Chicago Center
03:30PM 42.4903 -92.4492 13° North 423 487 32,700 -480 Descending Chicago Center
03:31PM 42.6058 -92.4681 353° North 419 482 32,000 -360 Descending Chicago Center
03:32PM 42.7114 -92.5389 334° Northwest 423 487 32,000  Level Chicago Center
03:33PM 42.8114 -92.6336 325° Northwest 437 503 32,000  Level Chicago Center
03:34PM 42.9097 -92.7258 326° Northwest 431 496 32,000  Level Minneapolis Center
03:35PM 43.0289 -92.8358 326° Northwest 432 497 32,000 -180 Level Minneapolis Center
03:36PM 43.1269 -92.9283 325° Northwest 431 496 31,700 -1,200 Descending Minneapolis Center
03:37PM 43.2247 -93.0194 326° Northwest 429 494 29,600 -2,160 Descending Minneapolis Center
03:38PM 43.3214 -93.1078 326° Northwest 422 486 27,300 -2,400 Descending Minneapolis Center
03:39PM 43.4236 -93.1683 337° Northwest 405 466 24,700 -2,760 Descending Minneapolis Center
03:40PM 43.5578 -93.1822 356° North 401 461 21,700 -2,760 Descending Minneapolis Center
03:41PM 43.6689 -93.1881 358° North 399 459 19,000 -2,460 Descending Minneapolis Center
03:42PM 43.7783 -93.1947 357° North 396 456 16,700 -2,400 Descending Minneapolis Center
03:44PM 43.8842 -93.2011 358° North 387 445 14,100 -2,520 Descending Minneapolis Center
03:45PM 43.9894 -93.2061 358° North 381 438 11,500 -2,040 Descending Minneapolis Center
03:46PM 44.1125 -93.2144 357° North 372 428 10,000 -780 Descending Minneapolis Center
03:47PM 44.2183 -93.2208 358° North 379 436 10,000  Level Minneapolis Center
03:48PM 44.3233 -93.2133 North 380 437 10,000  Level Minneapolis Center
03:49PM 44.4297 -93.2019 North 383 441 10,000  Level Minneapolis Center
03:50PM 44.5361 -93.1917 North 383 441 10,000  Level Minneapolis Center
03:51PM 44.6408 -93.1967 358° North 377 434 10,000 -120 Level Minneapolis Center
03:52PM 44.7542 -93.2583 339° North 356 410 9,800 -720 Descending Minneapolis Center
03:53PM 44.8133 -93.2992 334° Northwest 294 338 8,600 -1,800 Descending Minneapolis Center
03:54PM 44.8667 -93.4064 305° West 280 322 6,200 -1,860 Descending Minneapolis Center
03:55PM 44.9139 -93.4614 320° Northwest 231 266 4,800 -1,380 Descending Minneapolis Center
03:56PM 44.9389 -93.3956 62° Northeast 204 235 3,400 -1,260 Descending Minneapolis Center
03:57PM 44.9253 -93.3203 104° East 194 223 2,200 -1,020 Descending Minneapolis Center
03:58PM 44.9008 -93.2653 122° Southeast 166 191 1,300 -900 Descending Minneapolis Center
04:00PM 44.8820 -93.2218 35° Northeast  Level Estimated
04:07PM 44.8820 -93.2218 35° Northeast  Level Estimated